sensor_id;sensor_type;location;lat;lon;timestamp;P1;durP1;ratioP1;P2;durP2;ratioP2
30000;SDS011;16845;48.670;9.000;2023-03-01T00:00:02;40.90;;;21.00;;
30000;SDS011;16845;48.670;9.000;2023-03-01T00:02:31;35.25;;;20.92;;
30000;SDS011;16845;48.670;9.000;2023-03-01T00:05:00;33.78;;;20.00;;
30000;SDS011;16845;48.670;9.000;2023-03-01T00:07:28;34.28;;;20.23;;
30000;SDS011;16845;48.670;9.000;2023-03-01T00:09:56;40.28;;;20.85;;
30000;SDS011;16845;48.670;9.000;2023-03-01T00:12:24;37.10;;;19.83;;
30000;SDS011;16845;48.670;9.000;2023-03-01T00:14:53;33.03;;;20.13;;
30000;SDS011;16845;48.670;9.000;2023-03-01T00:17:21;40.15;;;22.27;;
30000;SDS011;16845;48.670;9.000;2023-03-01T00:19:49;35.00;;;21.65;;
30000;SDS011;16845;48.670;9.000;2023-03-01T00:22:18;38.22;;;20.13;;
30000;SDS011;16845;48.670;9.000;2023-03-01T00:24:46;31.58;;;19.67;;
30000;SDS011;16845;48.670;9.000;2023-03-01T00:27:15;34.70;;;19.85;;
30000;SDS011;16845;48.670;9.000;2023-03-01T00:29:43;35.38;;;20.30;;
30000;SDS011;16845;48.670;9.000;2023-03-01T00:32:11;37.80;;;20.63;;
30000;SDS011;16845;48.670;9.000;2023-03-01T00:34:39;33.25;;;18.92;;
30000;SDS011;16845;48.670;9.000;2023-03-01T00:37:07;33.15;;;20.67;;
30000;SDS011;16845;48.670;9.000;2023-03-01T00:39:36;41.10;;;20.92;;
30000;SDS011;16845;48.670;9.000;2023-03-01T00:42:04;35.38;;;20.45;;
30000;SDS011;16845;48.670;9.000;2023-03-01T00:44:32;36.78;;;21.02;;
30000;SDS011;16845;48.670;9.000;2023-03-01T00:47:00;33.03;;;20.40;;
30000;SDS011;16845;48.670;9.000;2023-03-01T00:49:28;32.15;;;19.88;;
30000;SDS011;16845;48.670;9.000;2023-03-01T00:51:56;39.28;;;20.25;;
30000;SDS011;16845;48.670;9.000;2023-03-01T00:54:24;41.97;;;22.02;;
30000;SDS011;16845;48.670;9.000;2023-03-01T00:56:54;38.05;;;21.23;;
30000;SDS011;16845;48.670;9.000;2023-03-01T00:59:22;40.00;;;21.80;;
30000;SDS011;16845;48.670;9.000;2023-03-01T01:01:49;34.97;;;20.60;;
30000;SDS011;16845;48.670;9.000;2023-03-01T01:04:17;39.53;;;20.50;;
30000;SDS011;16845;48.670;9.000;2023-03-01T01:06:45;34.40;;;20.38;;
30000;SDS011;16845;48.670;9.000;2023-03-01T01:09:15;34.83;;;21.40;;
30000;SDS011;16845;48.670;9.000;2023-03-01T01:11:44;38.92;;;20.63;;
30000;SDS011;16845;48.670;9.000;2023-03-01T01:14:15;37.92;;;20.60;;
30000;SDS011;16845;48.670;9.000;2023-03-01T01:16:43;38.63;;;21.35;;
30000;SDS011;16845;48.670;9.000;2023-03-01T01:19:11;38.53;;;21.10;;
30000;SDS011;16845;48.670;9.000;2023-03-01T01:21:39;36.33;;;20.23;;
30000;SDS011;16845;48.670;9.000;2023-03-01T01:24:09;39.13;;;21.38;;
30000;SDS011;16845;48.670;9.000;2023-03-01T01:26:37;43.63;;;21.83;;
30000;SDS011;16845;48.670;9.000;2023-03-01T01:29:06;38.47;;;20.38;;
30000;SDS011;16845;48.670;9.000;2023-03-01T01:31:36;37.88;;;20.25;;
30000;SDS011;16845;48.670;9.000;2023-03-01T01:34:07;37.13;;;20.55;;
30000;SDS011;16845;48.670;9.000;2023-03-01T01:36:37;36.35;;;20.58;;
30000;SDS011;16845;48.670;9.000;2023-03-01T01:39:05;36.63;;;19.63;;
30000;SDS011;16845;48.670;9.000;2023-03-01T01:41:33;35.70;;;20.55;;
30000;SDS011;16845;48.670;9.000;2023-03-01T01:44:15;37.30;;;21.35;;
30000;SDS011;16845;48.670;9.000;2023-03-01T01:46:47;49.35;;;20.98;;
30000;SDS011;16845;48.670;9.000;2023-03-01T01:49:25;38.47;;;20.95;;
30000;SDS011;16845;48.670;9.000;2023-03-01T01:52:00;39.08;;;21.45;;
30000;SDS011;16845;48.670;9.000;2023-03-01T01:54:37;36.95;;;22.08;;
30000;SDS011;16845;48.670;9.000;2023-03-01T01:57:13;40.42;;;22.52;;
30000;SDS011;16845;48.670;9.000;2023-03-01T01:59:46;36.25;;;21.17;;
30000;SDS011;16845;48.670;9.000;2023-03-01T02:02:19;49.67;;;22.90;;
30000;SDS011;16845;48.670;9.000;2023-03-01T02:04:48;38.28;;;22.70;;
30000;SDS011;16845;48.670;9.000;2023-03-01T02:07:20;37.72;;;22.27;;
30000;SDS011;16845;48.670;9.000;2023-03-01T02:09:50;39.33;;;20.70;;
30000;SDS011;16845;48.670;9.000;2023-03-01T02:12:20;35.10;;;20.88;;
30000;SDS011;16845;48.670;9.000;2023-03-01T02:14:50;36.95;;;20.33;;
30000;SDS011;16845;48.670;9.000;2023-03-01T02:17:20;41.33;;;20.83;;
30000;SDS011;16845;48.670;9.000;2023-03-01T02:19:52;40.63;;;20.00;;
30000;SDS011;16845;48.670;9.000;2023-03-01T02:22:29;39.45;;;21.55;;
30000;SDS011;16845;48.670;9.000;2023-03-01T02:25:02;38.78;;;23.73;;
30000;SDS011;16845;48.670;9.000;2023-03-01T02:27:40;40.65;;;21.55;;
30000;SDS011;16845;48.670;9.000;2023-03-01T02:30:15;38.35;;;19.65;;
30000;SDS011;16845;48.670;9.000;2023-03-01T02:32:43;35.78;;;20.67;;
30000;SDS011;16845;48.670;9.000;2023-03-01T02:35:12;37.30;;;21.02;;
30000;SDS011;16845;48.670;9.000;2023-03-01T02:37:41;40.17;;;21.95;;
30000;SDS011;16845;48.670;9.000;2023-03-01T02:40:12;36.78;;;21.65;;
30000;SDS011;16845;48.670;9.000;2023-03-01T02:42:45;43.75;;;20.58;;
30000;SDS011;16845;48.670;9.000;2023-03-01T02:45:18;35.20;;;21.15;;
30000;SDS011;16845;48.670;9.000;2023-03-01T02:47:46;35.30;;;19.90;;
30000;SDS011;16845;48.670;9.000;2023-03-01T02:50:18;35.47;;;21.50;;
30000;SDS011;16845;48.670;9.000;2023-03-01T02:52:53;33.97;;;18.83;;
30000;SDS011;16845;48.670;9.000;2023-03-01T02:55:24;31.92;;;20.15;;
30000;SDS011;16845;48.670;9.000;2023-03-01T02:57:53;35.17;;;19.83;;
30000;SDS011;16845;48.670;9.000;2023-03-01T03:00:24;32.60;;;20.30;;
30000;SDS011;16845;48.670;9.000;2023-03-01T03:02:56;35.05;;;19.58;;
30000;SDS011;16845;48.670;9.000;2023-03-01T03:05:25;36.47;;;21.58;;
30000;SDS011;16845;48.670;9.000;2023-03-01T03:07:55;35.22;;;20.17;;
30000;SDS011;16845;48.670;9.000;2023-03-01T03:10:26;37.70;;;20.75;;
30000;SDS011;16845;48.670;9.000;2023-03-01T03:12:56;36.88;;;21.10;;
30000;SDS011;16845;48.670;9.000;2023-03-01T03:15:27;33.90;;;20.08;;
30000;SDS011;16845;48.670;9.000;2023-03-01T03:17:56;34.25;;;20.65;;
30000;SDS011;16845;48.670;9.000;2023-03-01T03:20:26;34.65;;;20.33;;
30000;SDS011;16845;48.670;9.000;2023-03-01T03:22:55;37.92;;;21.92;;
30000;SDS011;16845;48.670;9.000;2023-03-01T03:25:25;33.85;;;19.52;;
30000;SDS011;16845;48.670;9.000;2023-03-01T03:27:54;33.40;;;20.35;;
30000;SDS011;16845;48.670;9.000;2023-03-01T03:30:25;41.30;;;20.40;;
30000;SDS011;16845;48.670;9.000;2023-03-01T03:32:55;37.72;;;21.75;;
30000;SDS011;16845;48.670;9.000;2023-03-01T03:35:25;38.55;;;21.75;;
30000;SDS011;16845;48.670;9.000;2023-03-01T03:37:56;42.17;;;22.75;;
30000;SDS011;16845;48.670;9.000;2023-03-01T03:40:33;33.25;;;20.02;;
30000;SDS011;16845;48.670;9.000;2023-03-01T03:43:03;38.25;;;22.05;;
30000;SDS011;16845;48.670;9.000;2023-03-01T03:45:33;35.65;;;20.77;;
30000;SDS011;16845;48.670;9.000;2023-03-01T03:48:02;35.13;;;20.33;;
30000;SDS011;16845;48.670;9.000;2023-03-01T03:50:32;31.08;;;20.05;;
30000;SDS011;16845;48.670;9.000;2023-03-01T03:53:01;37.28;;;20.52;;
30000;SDS011;16845;48.670;9.000;2023-03-01T03:55:30;34.30;;;21.17;;
30000;SDS011;16845;48.670;9.000;2023-03-01T03:58:00;33.70;;;20.85;;
30000;SDS011;16845;48.670;9.000;2023-03-01T04:00:34;36.15;;;22.23;;
30000;SDS011;16845;48.670;9.000;2023-03-01T04:03:04;38.35;;;22.27;;
30000;SDS011;16845;48.670;9.000;2023-03-01T04:05:32;36.45;;;21.85;;
30000;SDS011;16845;48.670;9.000;2023-03-01T04:08:00;38.72;;;19.85;;
30000;SDS011;16845;48.670;9.000;2023-03-01T04:10:34;36.65;;;20.30;;
30000;SDS011;16845;48.670;9.000;2023-03-01T04:13:03;36.83;;;20.75;;
30000;SDS011;16845;48.670;9.000;2023-03-01T04:15:32;38.08;;;21.33;;
30000;SDS011;16845;48.670;9.000;2023-03-01T04:18:02;37.47;;;21.08;;
30000;SDS011;16845;48.670;9.000;2023-03-01T04:20:32;37.10;;;22.67;;
30000;SDS011;16845;48.670;9.000;2023-03-01T04:23:02;39.20;;;21.77;;
30000;SDS011;16845;48.670;9.000;2023-03-01T04:25:37;40.28;;;22.25;;
30000;SDS011;16845;48.670;9.000;2023-03-01T04:28:06;41.15;;;23.48;;
30000;SDS011;16845;48.670;9.000;2023-03-01T04:30:37;35.90;;;22.17;;
30000;SDS011;16845;48.670;9.000;2023-03-01T04:33:06;37.83;;;22.33;;
30000;SDS011;16845;48.670;9.000;2023-03-01T04:35:35;35.20;;;20.60;;
30000;SDS011;16845;48.670;9.000;2023-03-01T04:38:04;37.75;;;21.25;;
30000;SDS011;16845;48.670;9.000;2023-03-01T04:40:33;40.05;;;21.15;;
30000;SDS011;16845;48.670;9.000;2023-03-01T04:43:02;50.22;;;22.73;;
30000;SDS011;16845;48.670;9.000;2023-03-01T04:45:31;42.13;;;22.42;;
30000;SDS011;16845;48.670;9.000;2023-03-01T04:48:02;35.00;;;21.75;;
30000;SDS011;16845;48.670;9.000;2023-03-01T04:50:30;34.78;;;21.38;;
30000;SDS011;16845;48.670;9.000;2023-03-01T04:52:58;38.17;;;22.00;;
30000;SDS011;16845;48.670;9.000;2023-03-01T04:55:26;38.55;;;21.95;;
30000;SDS011;16845;48.670;9.000;2023-03-01T04:57:56;45.38;;;24.75;;
30000;SDS011;16845;48.670;9.000;2023-03-01T05:00:24;32.75;;;21.27;;
30000;SDS011;16845;48.670;9.000;2023-03-01T05:02:52;37.15;;;21.95;;
30000;SDS011;16845;48.670;9.000;2023-03-01T05:05:24;39.63;;;23.33;;
30000;SDS011;16845;48.670;9.000;2023-03-01T05:07:54;40.55;;;22.23;;
30000;SDS011;16845;48.670;9.000;2023-03-01T05:10:23;45.60;;;23.75;;
30000;SDS011;16845;48.670;9.000;2023-03-01T05:12:52;43.28;;;23.35;;
30000;SDS011;16845;48.670;9.000;2023-03-01T05:15:20;39.38;;;22.85;;
30000;SDS011;16845;48.670;9.000;2023-03-01T05:17:52;42.05;;;22.60;;
30000;SDS011;16845;48.670;9.000;2023-03-01T05:20:20;36.33;;;22.00;;
30000;SDS011;16845;48.670;9.000;2023-03-01T05:22:50;38.75;;;23.05;;
30000;SDS011;16845;48.670;9.000;2023-03-01T05:25:19;38.13;;;22.38;;
30000;SDS011;16845;48.670;9.000;2023-03-01T05:27:47;41.47;;;22.55;;
30000;SDS011;16845;48.670;9.000;2023-03-01T05:30:16;38.90;;;23.45;;
30000;SDS011;16845;48.670;9.000;2023-03-01T05:32:45;46.13;;;23.70;;
30000;SDS011;16845;48.670;9.000;2023-03-01T05:35:15;37.45;;;22.65;;
30000;SDS011;16845;48.670;9.000;2023-03-01T05:37:46;39.38;;;23.17;;
30000;SDS011;16845;48.670;9.000;2023-03-01T05:40:16;43.88;;;24.88;;
30000;SDS011;16845;48.670;9.000;2023-03-01T05:42:46;38.65;;;23.17;;
30000;SDS011;16845;48.670;9.000;2023-03-01T05:45:15;43.28;;;23.25;;
30000;SDS011;16845;48.670;9.000;2023-03-01T05:47:45;40.10;;;25.25;;
30000;SDS011;16845;48.670;9.000;2023-03-01T05:50:15;35.78;;;23.17;;
30000;SDS011;16845;48.670;9.000;2023-03-01T05:52:47;44.53;;;23.02;;
30000;SDS011;16845;48.670;9.000;2023-03-01T05:55:16;41.20;;;25.13;;
30000;SDS011;16845;48.670;9.000;2023-03-01T05:57:45;43.88;;;24.98;;
30000;SDS011;16845;48.670;9.000;2023-03-01T06:00:14;45.83;;;24.52;;
30000;SDS011;16845;48.670;9.000;2023-03-01T06:02:45;40.20;;;24.00;;
30000;SDS011;16845;48.670;9.000;2023-03-01T06:05:13;40.55;;;24.60;;
30000;SDS011;16845;48.670;9.000;2023-03-01T06:07:41;47.15;;;27.13;;
30000;SDS011;16845;48.670;9.000;2023-03-01T06:10:12;42.33;;;23.33;;
30000;SDS011;16845;48.670;9.000;2023-03-01T06:12:41;39.78;;;22.65;;
30000;SDS011;16845;48.670;9.000;2023-03-01T06:15:10;42.20;;;24.45;;
30000;SDS011;16845;48.670;9.000;2023-03-01T06:17:40;44.45;;;22.58;;
30000;SDS011;16845;48.670;9.000;2023-03-01T06:20:11;39.60;;;24.27;;
30000;SDS011;16845;48.670;9.000;2023-03-01T06:22:41;43.85;;;24.73;;
30000;SDS011;16845;48.670;9.000;2023-03-01T06:25:10;43.95;;;24.13;;
30000;SDS011;16845;48.670;9.000;2023-03-01T06:27:40;40.70;;;22.88;;
30000;SDS011;16845;48.670;9.000;2023-03-01T06:30:10;44.72;;;24.33;;
30000;SDS011;16845;48.670;9.000;2023-03-01T06:32:40;42.20;;;23.55;;
30000;SDS011;16845;48.670;9.000;2023-03-01T06:35:09;43.45;;;25.30;;
30000;SDS011;16845;48.670;9.000;2023-03-01T06:37:37;43.85;;;24.50;;
30000;SDS011;16845;48.670;9.000;2023-03-01T06:40:06;39.97;;;24.50;;
30000;SDS011;16845;48.670;9.000;2023-03-01T06:42:39;39.40;;;22.33;;
30000;SDS011;16845;48.670;9.000;2023-03-01T06:45:09;46.65;;;25.25;;
30000;SDS011;16845;48.670;9.000;2023-03-01T06:47:38;42.03;;;22.40;;
30000;SDS011;16845;48.670;9.000;2023-03-01T06:50:06;44.30;;;23.05;;
30000;SDS011;16845;48.670;9.000;2023-03-01T06:52:35;37.03;;;22.58;;
30000;SDS011;16845;48.670;9.000;2023-03-01T06:55:03;41.28;;;23.02;;
30000;SDS011;16845;48.670;9.000;2023-03-01T06:57:32;39.38;;;23.25;;
30000;SDS011;16845;48.670;9.000;2023-03-01T07:00:01;39.08;;;22.95;;
30000;SDS011;16845;48.670;9.000;2023-03-01T07:02:30;47.63;;;23.55;;
30000;SDS011;16845;48.670;9.000;2023-03-01T07:04:58;41.22;;;23.60;;
30000;SDS011;16845;48.670;9.000;2023-03-01T07:07:26;42.05;;;24.13;;
30000;SDS011;16845;48.670;9.000;2023-03-01T07:09:54;45.10;;;24.35;;
30000;SDS011;16845;48.670;9.000;2023-03-01T07:12:22;41.88;;;22.70;;
30000;SDS011;16845;48.670;9.000;2023-03-01T07:14:50;40.72;;;24.80;;
30000;SDS011;16845;48.670;9.000;2023-03-01T07:17:19;44.92;;;23.67;;
30000;SDS011;16845;48.670;9.000;2023-03-01T07:19:47;38.22;;;23.10;;
30000;SDS011;16845;48.670;9.000;2023-03-01T07:22:15;41.60;;;24.02;;
30000;SDS011;16845;48.670;9.000;2023-03-01T07:24:43;39.92;;;22.80;;
30000;SDS011;16845;48.670;9.000;2023-03-01T07:27:11;46.28;;;25.50;;
30000;SDS011;16845;48.670;9.000;2023-03-01T07:29:41;38.70;;;22.83;;
30000;SDS011;16845;48.670;9.000;2023-03-01T07:32:09;36.60;;;23.48;;
30000;SDS011;16845;48.670;9.000;2023-03-01T07:34:39;42.20;;;23.95;;
30000;SDS011;16845;48.670;9.000;2023-03-01T07:37:07;41.35;;;22.77;;
30000;SDS011;16845;48.670;9.000;2023-03-01T07:39:35;46.45;;;23.17;;
30000;SDS011;16845;48.670;9.000;2023-03-01T07:42:03;41.97;;;24.63;;
30000;SDS011;16845;48.670;9.000;2023-03-01T07:44:31;44.63;;;24.25;;
30000;SDS011;16845;48.670;9.000;2023-03-01T07:46:59;36.95;;;23.33;;
30000;SDS011;16845;48.670;9.000;2023-03-01T07:49:27;40.55;;;23.58;;
30000;SDS011;16845;48.670;9.000;2023-03-01T07:51:57;42.03;;;24.15;;
30000;SDS011;16845;48.670;9.000;2023-03-01T07:54:24;38.33;;;23.50;;
30000;SDS011;16845;48.670;9.000;2023-03-01T07:56:53;40.13;;;23.90;;
30000;SDS011;16845;48.670;9.000;2023-03-01T07:59:21;42.10;;;25.00;;
30000;SDS011;16845;48.670;9.000;2023-03-01T08:01:49;41.35;;;23.58;;
30000;SDS011;16845;48.670;9.000;2023-03-01T08:04:17;43.28;;;25.02;;
30000;SDS011;16845;48.670;9.000;2023-03-01T08:06:45;39.65;;;23.48;;
30000;SDS011;16845;48.670;9.000;2023-03-01T08:09:15;40.50;;;23.55;;
30000;SDS011;16845;48.670;9.000;2023-03-01T08:11:42;42.00;;;24.70;;
30000;SDS011;16845;48.670;9.000;2023-03-01T08:14:10;42.60;;;24.17;;
30000;SDS011;16845;48.670;9.000;2023-03-01T08:16:39;40.92;;;22.63;;
30000;SDS011;16845;48.670;9.000;2023-03-01T08:19:07;45.22;;;24.23;;
30000;SDS011;16845;48.670;9.000;2023-03-01T08:21:37;42.33;;;23.98;;
30000;SDS011;16845;48.670;9.000;2023-03-01T08:24:05;39.53;;;23.40;;
30000;SDS011;16845;48.670;9.000;2023-03-01T08:26:37;47.17;;;23.60;;
30000;SDS011;16845;48.670;9.000;2023-03-01T08:29:05;37.63;;;23.02;;
30000;SDS011;16845;48.670;9.000;2023-03-01T08:31:34;38.10;;;23.65;;
30000;SDS011;16845;48.670;9.000;2023-03-01T08:34:04;42.40;;;23.20;;
30000;SDS011;16845;48.670;9.000;2023-03-01T08:36:35;36.78;;;22.52;;
30000;SDS011;16845;48.670;9.000;2023-03-01T08:39:04;32.80;;;20.20;;
30000;SDS011;16845;48.670;9.000;2023-03-01T08:41:33;31.10;;;20.58;;
30000;SDS011;16845;48.670;9.000;2023-03-01T08:44:02;42.50;;;22.63;;
30000;SDS011;16845;48.670;9.000;2023-03-01T08:46:33;36.92;;;24.23;;
30000;SDS011;16845;48.670;9.000;2023-03-01T08:49:03;37.35;;;22.73;;
30000;SDS011;16845;48.670;9.000;2023-03-01T08:51:31;39.97;;;22.77;;
30000;SDS011;16845;48.670;9.000;2023-03-01T08:54:03;36.85;;;22.25;;
30000;SDS011;16845;48.670;9.000;2023-03-01T08:56:31;34.78;;;21.67;;
30000;SDS011;16845;48.670;9.000;2023-03-01T08:58:59;37.22;;;23.30;;
30000;SDS011;16845;48.670;9.000;2023-03-01T09:01:28;37.55;;;20.17;;
30000;SDS011;16845;48.670;9.000;2023-03-01T09:03:57;33.78;;;21.50;;
30000;SDS011;16845;48.670;9.000;2023-03-01T09:06:25;33.67;;;20.67;;
30000;SDS011;16845;48.670;9.000;2023-03-01T09:08:53;32.25;;;21.13;;
30000;SDS011;16845;48.670;9.000;2023-03-01T09:11:21;32.72;;;21.15;;
30000;SDS011;16845;48.670;9.000;2023-03-01T09:13:49;32.70;;;20.52;;
30000;SDS011;16845;48.670;9.000;2023-03-01T09:16:18;30.23;;;20.98;;
30000;SDS011;16845;48.670;9.000;2023-03-01T09:18:50;34.42;;;23.05;;
30000;SDS011;16845;48.670;9.000;2023-03-01T09:21:19;37.42;;;22.23;;
30000;SDS011;16845;48.670;9.000;2023-03-01T09:24:05;30.13;;;20.92;;
30000;SDS011;16845;48.670;9.000;2023-03-01T09:26:33;36.70;;;21.52;;
30000;SDS011;16845;48.670;9.000;2023-03-01T09:29:01;31.13;;;19.80;;
30000;SDS011;16845;48.670;9.000;2023-03-01T09:31:29;32.92;;;21.55;;
30000;SDS011;16845;48.670;9.000;2023-03-01T09:33:59;38.20;;;22.17;;
30000;SDS011;16845;48.670;9.000;2023-03-01T09:36:27;36.72;;;20.95;;
30000;SDS011;16845;48.670;9.000;2023-03-01T09:38:55;37.53;;;22.10;;
30000;SDS011;16845;48.670;9.000;2023-03-01T09:41:33;34.60;;;22.17;;
30000;SDS011;16845;48.670;9.000;2023-03-01T09:44:10;34.65;;;22.52;;
30000;SDS011;16845;48.670;9.000;2023-03-01T09:46:45;36.40;;;21.33;;
30000;SDS011;16845;48.670;9.000;2023-03-01T09:49:16;34.10;;;21.30;;
30000;SDS011;16845;48.670;9.000;2023-03-01T09:51:50;41.58;;;22.88;;
30000;SDS011;16845;48.670;9.000;2023-03-01T09:56:56;32.67;;;20.33;;
30000;SDS011;16845;48.670;9.000;2023-03-01T09:59:54;36.92;;;23.27;;
30000;SDS011;16845;48.670;9.000;2023-03-01T10:02:32;37.55;;;22.13;;
30000;SDS011;16845;48.670;9.000;2023-03-01T10:05:13;31.48;;;20.83;;
30000;SDS011;16845;48.670;9.000;2023-03-01T10:07:54;32.00;;;20.35;;
30000;SDS011;16845;48.670;9.000;2023-03-01T10:10:33;29.92;;;20.02;;
30000;SDS011;16845;48.670;9.000;2023-03-01T10:13:07;31.02;;;21.10;;
30000;SDS011;16845;48.670;9.000;2023-03-01T10:15:43;32.33;;;20.42;;
30000;SDS011;16845;48.670;9.000;2023-03-01T10:18:15;34.10;;;21.35;;
30000;SDS011;16845;48.670;9.000;2023-03-01T10:20:48;38.00;;;21.73;;
30000;SDS011;16845;48.670;9.000;2023-03-01T10:23:21;28.80;;;19.17;;
30000;SDS011;16845;48.670;9.000;2023-03-01T10:25:54;28.77;;;19.42;;
30000;SDS011;16845;48.670;9.000;2023-03-01T10:28:35;27.33;;;18.77;;
30000;SDS011;16845;48.670;9.000;2023-03-01T10:31:12;31.10;;;18.77;;
30000;SDS011;16845;48.670;9.000;2023-03-01T10:33:42;28.88;;;19.33;;
30000;SDS011;16845;48.670;9.000;2023-03-01T10:36:11;26.33;;;20.20;;
30000;SDS011;16845;48.670;9.000;2023-03-01T10:38:49;28.90;;;20.00;;
30000;SDS011;16845;48.670;9.000;2023-03-01T10:41:20;27.63;;;19.13;;
30000;SDS011;16845;48.670;9.000;2023-03-01T10:43:51;27.58;;;19.92;;
30000;SDS011;16845;48.670;9.000;2023-03-01T10:46:24;25.70;;;18.23;;
30000;SDS011;16845;48.670;9.000;2023-03-01T10:51:46;26.95;;;19.55;;
30000;SDS011;16845;48.670;9.000;2023-03-01T10:54:16;27.48;;;19.02;;
30000;SDS011;16845;48.670;9.000;2023-03-01T10:56:46;25.35;;;18.77;;
30000;SDS011;16845;48.670;9.000;2023-03-01T10:59:20;28.20;;;19.38;;
30000;SDS011;16845;48.670;9.000;2023-03-01T11:02:03;33.75;;;19.67;;
30000;SDS011;16845;48.670;9.000;2023-03-01T11:07:48;27.65;;;18.60;;
30000;SDS011;16845;48.670;9.000;2023-03-01T11:10:18;30.75;;;19.52;;
30000;SDS011;16845;48.670;9.000;2023-03-01T11:12:48;26.27;;;18.67;;
30000;SDS011;16845;48.670;9.000;2023-03-01T11:15:21;28.33;;;19.48;;
30000;SDS011;16845;48.670;9.000;2023-03-01T11:17:51;27.00;;;20.40;;
30000;SDS011;16845;48.670;9.000;2023-03-01T11:20:35;27.95;;;19.30;;
30000;SDS011;16845;48.670;9.000;2023-03-01T11:23:05;28.90;;;18.90;;
30000;SDS011;16845;48.670;9.000;2023-03-01T11:25:39;38.65;;;19.75;;
30000;SDS011;16845;48.670;9.000;2023-03-01T11:28:10;27.90;;;19.33;;
30000;SDS011;16845;48.670;9.000;2023-03-01T11:30:43;35.75;;;21.25;;
30000;SDS011;16845;48.670;9.000;2023-03-01T11:33:34;31.92;;;20.38;;
30000;SDS011;16845;48.670;9.000;2023-03-01T11:36:11;29.17;;;20.30;;
30000;SDS011;16845;48.670;9.000;2023-03-01T11:38:45;31.25;;;20.92;;
30000;SDS011;16845;48.670;9.000;2023-03-01T11:41:15;27.73;;;19.48;;
30000;SDS011;16845;48.670;9.000;2023-03-01T11:43:47;27.02;;;18.88;;
30000;SDS011;16845;48.670;9.000;2023-03-01T11:46:38;33.10;;;19.65;;
30000;SDS011;16845;48.670;9.000;2023-03-01T11:49:31;31.38;;;18.85;;
30000;SDS011;16845;48.670;9.000;2023-03-01T11:52:08;27.67;;;18.60;;
30000;SDS011;16845;48.670;9.000;2023-03-01T11:54:53;28.10;;;18.92;;
30000;SDS011;16845;48.670;9.000;2023-03-01T11:57:37;27.90;;;19.77;;
30000;SDS011;16845;48.670;9.000;2023-03-01T12:00:23;34.17;;;19.52;;
30000;SDS011;16845;48.670;9.000;2023-03-01T12:06:00;28.10;;;19.38;;
30000;SDS011;16845;48.670;9.000;2023-03-01T12:08:53;27.50;;;19.27;;
30000;SDS011;16845;48.670;9.000;2023-03-01T12:11:35;33.58;;;19.67;;
30000;SDS011;16845;48.670;9.000;2023-03-01T12:14:24;26.13;;;19.75;;
30000;SDS011;16845;48.670;9.000;2023-03-01T12:17:09;30.70;;;19.08;;
30000;SDS011;16845;48.670;9.000;2023-03-01T12:20:11;28.08;;;19.67;;
30000;SDS011;16845;48.670;9.000;2023-03-01T12:23:00;28.63;;;18.92;;
30000;SDS011;16845;48.670;9.000;2023-03-01T12:25:46;32.80;;;19.08;;
30000;SDS011;16845;48.670;9.000;2023-03-01T12:28:32;24.88;;;19.15;;
30000;SDS011;16845;48.670;9.000;2023-03-01T12:31:29;25.00;;;17.92;;
30000;SDS011;16845;48.670;9.000;2023-03-01T12:34:22;25.63;;;17.85;;
30000;SDS011;16845;48.670;9.000;2023-03-01T12:37:11;24.55;;;18.25;;
30000;SDS011;16845;48.670;9.000;2023-03-01T12:39:51;26.55;;;17.83;;
30000;SDS011;16845;48.670;9.000;2023-03-01T12:42:30;26.65;;;17.45;;
30000;SDS011;16845;48.670;9.000;2023-03-01T12:45:12;22.67;;;17.95;;
30000;SDS011;16845;48.670;9.000;2023-03-01T12:47:58;26.35;;;19.85;;
30000;SDS011;16845;48.670;9.000;2023-03-01T12:50:37;26.10;;;17.27;;
30000;SDS011;16845;48.670;9.000;2023-03-01T12:53:14;21.42;;;17.10;;
30000;SDS011;16845;48.670;9.000;2023-03-01T12:55:50;23.92;;;18.05;;
30000;SDS011;16845;48.670;9.000;2023-03-01T12:58:23;21.67;;;17.50;;
30000;SDS011;16845;48.670;9.000;2023-03-01T13:01:16;23.40;;;17.15;;
30000;SDS011;16845;48.670;9.000;2023-03-01T13:04:00;20.27;;;16.15;;
30000;SDS011;16845;48.670;9.000;2023-03-01T13:06:40;20.38;;;15.75;;
30000;SDS011;16845;48.670;9.000;2023-03-01T13:09:19;22.80;;;17.63;;
30000;SDS011;16845;48.670;9.000;2023-03-01T13:11:52;19.75;;;16.80;;
30000;SDS011;16845;48.670;9.000;2023-03-01T13:14:36;20.20;;;15.75;;
30000;SDS011;16845;48.670;9.000;2023-03-01T13:17:32;23.38;;;16.42;;
30000;SDS011;16845;48.670;9.000;2023-03-01T13:20:15;19.98;;;15.45;;
30000;SDS011;16845;48.670;9.000;2023-03-01T13:22:44;20.08;;;15.20;;
30000;SDS011;16845;48.670;9.000;2023-03-01T13:25:20;21.85;;;16.20;;
30000;SDS011;16845;48.670;9.000;2023-03-01T13:28:17;17.98;;;15.43;;
30000;SDS011;16845;48.670;9.000;2023-03-01T13:31:04;21.38;;;14.95;;
30000;SDS011;16845;48.670;9.000;2023-03-01T13:33:41;19.88;;;14.95;;
30000;SDS011;16845;48.670;9.000;2023-03-01T13:39:29;17.33;;;15.13;;
30000;SDS011;16845;48.670;9.000;2023-03-01T13:42:01;22.10;;;15.48;;
30000;SDS011;16845;48.670;9.000;2023-03-01T13:44:30;21.10;;;15.65;;
30000;SDS011;16845;48.670;9.000;2023-03-01T13:47:04;17.05;;;14.25;;
30000;SDS011;16845;48.670;9.000;2023-03-01T13:49:46;20.05;;;14.68;;
30000;SDS011;16845;48.670;9.000;2023-03-01T13:52:24;24.10;;;14.60;;
30000;SDS011;16845;48.670;9.000;2023-03-01T13:55:03;19.60;;;15.45;;
30000;SDS011;16845;48.670;9.000;2023-03-01T13:57:34;19.40;;;15.68;;
30000;SDS011;16845;48.670;9.000;2023-03-01T14:00:23;19.33;;;15.07;;
30000;SDS011;16845;48.670;9.000;2023-03-01T14:03:00;20.80;;;15.10;;
30000;SDS011;16845;48.670;9.000;2023-03-01T14:05:42;22.10;;;14.27;;
30000;SDS011;16845;48.670;9.000;2023-03-01T14:08:18;21.50;;;15.38;;
30000;SDS011;16845;48.670;9.000;2023-03-01T14:10:53;19.17;;;14.67;;
30000;SDS011;16845;48.670;9.000;2023-03-01T14:13:36;21.20;;;14.93;;
30000;SDS011;16845;48.670;9.000;2023-03-01T14:16:19;22.20;;;16.35;;
30000;SDS011;16845;48.670;9.000;2023-03-01T14:18:59;21.55;;;15.32;;
30000;SDS011;16845;48.670;9.000;2023-03-01T14:21:59;25.70;;;17.77;;
30000;SDS011;16845;48.670;9.000;2023-03-01T14:24:39;22.60;;;16.63;;
30000;SDS011;16845;48.670;9.000;2023-03-01T14:27:12;24.75;;;17.73;;
30000;SDS011;16845;48.670;9.000;2023-03-01T14:29:41;25.50;;;18.17;;
30000;SDS011;16845;48.670;9.000;2023-03-01T14:32:10;25.02;;;17.67;;
30000;SDS011;16845;48.670;9.000;2023-03-01T14:34:42;26.92;;;18.63;;
30000;SDS011;16845;48.670;9.000;2023-03-01T14:37:18;27.92;;;18.65;;
30000;SDS011;16845;48.670;9.000;2023-03-01T14:39:47;27.42;;;18.27;;
30000;SDS011;16845;48.670;9.000;2023-03-01T14:42:15;32.17;;;19.02;;
30000;SDS011;16845;48.670;9.000;2023-03-01T14:44:45;24.52;;;17.27;;
30000;SDS011;16845;48.670;9.000;2023-03-01T14:47:15;30.95;;;19.05;;
30000;SDS011;16845;48.670;9.000;2023-03-01T14:49:54;29.33;;;20.30;;
30000;SDS011;16845;48.670;9.000;2023-03-01T14:52:28;26.02;;;18.77;;
30000;SDS011;16845;48.670;9.000;2023-03-01T14:55:01;30.40;;;20.15;;
30000;SDS011;16845;48.670;9.000;2023-03-01T14:57:32;29.20;;;19.65;;
30000;SDS011;16845;48.670;9.000;2023-03-01T15:00:01;27.75;;;19.25;;
30000;SDS011;16845;48.670;9.000;2023-03-01T15:02:32;32.05;;;19.92;;
30000;SDS011;16845;48.670;9.000;2023-03-01T15:05:02;30.90;;;19.10;;